Time;durP1;ratioP1;P1;durP2;ratioP2;P2;SDS_P1;SDS_P2;PMS_P1;PMS_P2;Temp;Humidity;BMP_temperature;BMP_pressure;BME280_temperature;BME280_humidity;BME280_pressure;Samples;Min_cycle;Max_cycle;Signal;HPM_P1;HPM_P2
2023/01/01 00:01:27;;;;;;;58.47;35.20;;;13.80;1.00;;;;;;5054721;28;20407;-54
2023/01/01 00:03:54;;;;;;;58.58;35.08;;;13.80;1.00;;;;;;5074035;28;20400;-54
2023/01/01 00:06:20;;;;;;;49.85;29.92;;;13.80;1.00;;;;;;5072629;28;20385;-54
2023/01/01 00:08:46;;;;;;;47.63;27.70;;;13.70;1.00;;;;;;5073303;28;20718;-53
2023/01/01 00:11:12;;;;;;;52.00;30.65;;;13.80;1.00;;;;;;5072031;28;20474;-56
2023/01/01 00:13:40;;;;;;;42.25;24.77;;;13.80;1.00;;;;;;5055637;28;20475;-53
2023/01/01 00:16:13;;;;;;;38.97;23.70;;;13.80;1.00;;;;;;5072365;28;20396;-53
2023/01/01 00:18:39;;;;;;;62.72;37.88;;;13.80;1.00;;;;;;5072972;28;20417;-51
2023/01/01 00:21:12;;;;;;;37.60;23.45;;;13.90;1.00;;;;;;5070759;28;20412;-52
2023/01/01 00:23:38;;;;;;;40.70;24.00;;;13.90;1.00;;;;;;5073025;28;20395;-52
2023/01/01 00:26:11;;;;;;;48.35;28.40;;;13.70;1.00;;;;;;5072202;28;20396;-51
2023/01/01 00:28:37;;;;;;;44.03;24.00;;;13.60;1.00;;;;;;5072777;28;20377;-52
2023/01/01 00:31:15;;;;;;;44.30;25.15;;;13.60;1.00;;;;;;5071703;28;20387;-52
2023/01/01 00:33:41;;;;;;;40.20;22.90;;;13.70;1.00;;;;;;5072108;28;20886;-52
2023/01/01 00:36:12;;;;;;;36.58;20.27;;;13.60;1.00;;;;;;5071527;28;20408;-51
2023/01/01 00:38:38;;;;;;;38.83;20.23;;;13.60;1.00;;;;;;5073143;28;20433;-51
2023/01/01 00:41:04;;;;;;;34.92;18.92;;;13.60;1.00;;;;;;5069812;28;20435;-53
2023/01/01 00:43:30;;;;;;;29.73;16.88;;;13.60;1.00;;;;;;5072220;28;20426;-51
2023/01/01 00:45:55;;;;;;;29.77;14.80;;;13.50;1.00;;;;;;5072241;28;20392;-56
2023/01/01 00:48:22;;;;;;;23.87;13.47;;;13.50;1.00;;;;;;5072175;28;20387;-51
2023/01/01 00:50:48;;;;;;;23.13;12.03;;;13.40;1.00;;;;;;5072405;28;20948;-53
2023/01/01 00:53:14;;;;;;;22.33;11.35;;;13.40;1.00;;;;;;5071647;28;20423;-53
2023/01/01 00:55:41;;;;;;;22.70;11.27;;;13.50;1.00;;;;;;5072070;28;20445;-53
2023/01/01 00:58:07;;;;;;;20.45;10.85;;;13.40;1.00;;;;;;5053221;28;20904;-53
2023/01/01 01:00:33;;;;;;;16.42;8.90;;;13.50;1.00;;;;;;5053609;28;20473;-52
2023/01/01 01:02:59;;;;;;;17.07;8.70;;;13.50;1.00;;;;;;5065115;28;20540;-58
2023/01/01 01:05:24;;;;;;;16.30;8.55;;;13.50;1.00;;;;;;5052850;28;20390;-54
2023/01/01 01:07:50;;;;;;;16.90;7.43;;;13.60;1.00;;;;;;5072142;28;20404;-52
2023/01/01 01:10:16;;;;;;;17.23;8.23;;;13.50;1.00;;;;;;5053762;28;20471;-51
2023/01/01 01:12:42;;;;;;;15.93;7.70;;;13.50;1.00;;;;;;5071210;28;20975;-54
2023/01/01 01:15:08;;;;;;;14.70;7.25;;;13.60;1.00;;;;;;5071519;28;20454;-52
2023/01/01 01:17:34;;;;;;;15.38;7.38;;;13.50;1.00;;;;;;5072191;28;20395;-52
2023/01/01 01:20:00;;;;;;;13.77;6.57;;;13.60;1.00;;;;;;5071400;28;20392;-57
2023/01/01 01:22:26;;;;;;;13.25;6.93;;;13.70;1.00;;;;;;5071921;28;20418;-54
2023/01/01 01:24:52;;;;;;;13.93;6.30;;;13.70;1.00;;;;;;5071992;28;20392;-54
2023/01/01 01:27:17;;;;;;;14.02;7.00;;;13.80;1.00;;;;;;5071262;28;20380;-54
2023/01/01 01:29:43;;;;;;;16.00;6.90;;;13.70;1.00;;;;;;5071975;28;20387;-54
2023/01/01 01:32:11;;;;;;;16.30;6.50;;;13.70;1.00;;;;;;5070976;28;20388;-53
2023/01/01 01:34:36;;;;;;;16.80;7.20;;;13.70;1.00;;;;;;5071183;28;20513;-53
2023/01/01 01:37:02;;;;;;;13.85;5.90;;;13.60;1.00;;;;;;5070811;28;20813;-52
2023/01/01 01:39:28;;;;;;;13.85;5.63;;;13.60;1.00;;;;;;5071499;28;20479;-52
2023/01/01 01:41:54;;;;;;;16.03;5.87;;;13.60;1.00;;;;;;5071428;28;20495;-52
2023/01/01 01:44:47;;;;;;;11.60;5.40;;;13.80;1.00;;;;;;5070821;28;20471;-53
2023/01/01 01:47:37;;;;;;;12.13;5.57;;;13.80;1.00;;;;;;5070576;28;20396;-51
2023/01/01 01:50:15;;;;;;;11.77;5.18;;;13.80;1.00;;;;;;5070758;28;20880;-51
2023/01/01 01:52:58;;;;;;;12.23;5.70;;;13.90;1.00;;;;;;5071175;28;20399;-54
2023/01/01 01:55:28;;;;;;;14.50;5.18;;;13.90;1.00;;;;;;5070840;28;20482;-54
2023/01/01 01:57:54;;;;;;;12.38;5.47;;;13.70;1.00;;;;;;5071620;28;20427;-54
2023/01/01 02:00:19;;;;;;;17.45;6.40;;;13.60;1.00;;;;;;5070212;28;20509;-54
2023/01/01 02:03:01;;;;;;;11.87;5.50;;;13.60;1.00;;;;;;5070982;28;20414;-54
2023/01/01 02:05:28;;;;;;;11.13;5.38;;;13.20;1.00;;;;;;5071317;28;20419;-51
2023/01/01 02:07:55;;;;;;;12.15;5.30;;;13.60;1.00;;;;;;5071182;28;20941;-51
2023/01/01 02:10:20;;;;;;;11.40;4.70;;;13.60;1.00;;;;;;5070307;28;20395;-52
2023/01/01 02:12:46;;;;;;;11.85;5.00;;;13.60;1.00;;;;;;5071015;28;20395;-51
2023/01/01 02:15:12;;;;;;;11.30;4.63;;;13.60;1.00;;;;;;5069800;28;20946;-51
2023/01/01 02:17:41;;;;;;;12.10;5.30;;;13.60;1.00;;;;;;5070687;28;20910;-52
2023/01/01 02:20:33;;;;;;;11.93;4.95;;;13.90;1.00;;;;;;5069987;28;20471;-52
2023/01/01 02:23:14;;;;;;;12.63;4.95;;;13.80;1.00;;;;;;5051644;28;20889;-57
2023/01/01 02:26:10;;;;;;;11.20;4.38;;;13.70;1.00;;;;;;5070472;28;20396;-54
2023/01/01 02:29:00;;;;;;;10.70;4.70;;;13.80;1.00;;;;;;5065982;28;20481;-54
2023/01/01 02:31:33;;;;;;;10.68;4.50;;;13.80;1.00;;;;;;5070373;28;20392;-53
2023/01/01 02:34:03;;;;;;;9.57;4.03;;;14.00;1.00;;;;;;5070192;28;20403;-59
2023/01/01 02:36:32;;;;;;;11.10;4.63;;;14.20;1.00;;;;;;5070272;28;20939;-55
2023/01/01 02:39:00;;;;;;;13.43;4.53;;;14.10;1.00;;;;;;5070372;28;20505;-59
2023/01/01 02:41:47;;;;;;;11.23;4.60;;;14.00;1.00;;;;;;5070056;28;20914;-53
2023/01/01 02:44:14;;;;;;;10.80;4.25;;;13.90;1.00;;;;;;5068879;28;20628;-53
2023/01/01 02:46:39;;;;;;;11.20;4.80;;;13.80;1.00;;;;;;5070556;28;20392;-54
2023/01/01 02:49:05;;;;;;;9.63;4.50;;;13.80;1.00;;;;;;5069355;28;20883;-54
2023/01/01 02:52:01;;;;;;;9.80;4.40;;;13.90;1.00;;;;;;5069949;28;20395;-53
2023/01/01 02:54:59;;;;;;;10.40;4.20;;;13.90;1.00;;;;;;5069356;28;20380;-54
2023/01/01 02:57:38;;;;;;;13.30;5.13;;;13.90;1.00;;;;;;5069388;28;20388;-54
2023/01/01 03:00:27;;;;;;;12.60;4.28;;;14.00;1.00;;;;;;5069142;28;20400;-54
2023/01/01 03:03:26;;;;;;;12.60;4.53;;;14.00;1.00;;;;;;5069176;28;20772;-53
2023/01/01 03:06:21;;;;;;;10.43;4.20;;;14.00;1.00;;;;;;5069899;28;20415;-54
2023/01/01 03:09:18;;;;;;;12.82;4.63;;;14.00;1.00;;;;;;5069601;28;20904;-54
2023/01/01 03:12:04;;;;;;;10.27;4.60;;;13.90;1.00;;;;;;5050420;28;20480;-54
2023/01/01 03:14:48;;;;;;;10.07;4.50;;;13.80;1.00;;;;;;5063335;28;20384;-54
2023/01/01 03:17:25;;;;;;;11.05;4.20;;;13.80;1.00;;;;;;5069600;28;20419;-53
2023/01/01 03:19:52;;;;;;;12.27;4.30;;;13.80;1.00;;;;;;5070429;28;20435;-53
2023/01/01 03:22:23;;;;;;;10.93;4.05;;;13.90;1.00;;;;;;5068530;28;20616;-54
2023/01/01 03:24:57;;;;;;;13.50;4.35;;;13.60;1.00;;;;;;5069868;28;20440;-55
2023/01/01 03:27:24;;;;;;;8.65;3.47;;;13.40;1.00;;;;;;5069880;28;20471;-53
2023/01/01 03:29:53;;;;;;;8.55;3.40;;;13.30;1.00;;;;;;5069678;28;20921;-53
2023/01/01 03:32:58;;;;;;;9.35;3.50;;;13.30;1.00;;;;;;5069115;28;20375;-52
2023/01/01 03:35:13;;;;;;;8.75;3.40;;;13.30;1.00;;;;;;5048836;28;20735;-53
2023/01/01 03:37:41;;;;;;;10.65;3.47;;;13.30;1.00;;;;;;5050383;28;20432;-54
2023/01/01 03:40:09;;;;;;;9.30;3.20;;;13.30;1.00;;;;;;5068344;28;20742;-52
2023/01/01 03:42:39;;;;;;;9.55;3.55;;;13.40;1.00;;;;;;5069554;28;20889;-55
2023/01/01 03:45:16;;;;;;;10.05;3.53;;;13.40;1.00;;;;;;5068837;28;20417;-54
2023/01/01 03:47:42;;;;;;;8.23;3.20;;;13.40;1.00;;;;;;5069964;28;20387;-53
2023/01/01 03:50:08;;;;;;;9.27;3.10;;;13.50;1.00;;;;;;5068571;28;20509;-54
2023/01/01 03:53:21;;;;;;;8.95;3.50;;;13.40;1.00;;;;;;5069497;28;20384;-54
2023/01/01 03:56:04;;;;;;;10.20;3.10;;;13.40;1.00;;;;;;5052030;28;20395;-52
2023/01/01 03:58:44;;;;;;;10.40;3.53;;;13.30;1.00;;;;;;5069790;28;20865;-51
2023/01/01 04:01:31;;;;;;;7.20;3.00;;;13.30;1.00;;;;;;5068617;28;20438;-51
2023/01/01 04:03:57;;;;;;;7.80;2.30;;;13.30;1.00;;;;;;5069384;28;20388;-52
2023/01/01 04:06:23;;;;;;;8.93;2.60;;;13.30;1.00;;;;;;5068787;28;20399;-51
2023/01/01 04:08:54;;;;;;;7.57;2.58;;;13.30;1.00;;;;;;5069244;28;20467;-52
2023/01/01 04:14:07;;;;;;;7.78;2.38;;;13.10;1.00;;;;;;5068337;28;20491;-51
2023/01/01 04:16:33;;;;;;;7.40;2.23;;;13.10;1.00;;;;;;5069153;28;20466;-51
2023/01/01 04:18:59;;;;;;;9.50;2.58;;;12.90;1.00;;;;;;5068937;28;20380;-52
2023/01/01 04:21:24;;;;;;;7.43;2.40;;;12.90;1.00;;;;;;5068523;28;21146;-51
2023/01/01 04:23:50;;;;;;;10.47;2.90;;;12.90;1.00;;;;;;5069142;28;20458;-51
2023/01/01 04:26:15;;;;;;;9.00;2.75;;;12.90;1.00;;;;;;5068481;28;20368;-54
2023/01/01 04:28:42;;;;;;;8.30;3.03;;;12.60;1.00;;;;;;5069278;28;20922;-52
2023/01/01 04:31:09;;;;;;;8.93;3.20;;;12.60;1.00;;;;;;5068036;28;20380;-52
2023/01/01 04:33:35;;;;;;;9.13;2.78;;;12.60;1.00;;;;;;5068890;28;20394;-52
2023/01/01 04:36:09;;;;;;;8.68;3.00;;;12.50;1.00;;;;;;5068967;28;20464;-58
2023/01/01 04:38:36;;;;;;;9.60;3.25;;;12.40;1.00;;;;;;5068848;28;20395;-53
2023/01/01 04:41:02;;;;;;;7.53;2.55;;;12.30;1.00;;;;;;5068723;28;20392;-58
2023/01/01 04:43:30;;;;;;;8.98;2.50;;;11.70;1.00;;;;;;5068602;28;20873;-52
2023/01/01 04:46:00;;;;;;;7.60;2.42;;;12.50;1.00;;;;;;5053944;28;20831;-52
2023/01/01 04:48:27;;;;;;;7.72;2.60;;;12.40;1.00;;;;;;5071770;28;20860;-53
2023/01/01 04:50:56;;;;;;;8.70;2.60;;;12.40;1.00;;;;;;5072493;28;20395;-55
2023/01/01 04:53:22;;;;;;;9.52;2.60;;;12.40;1.00;;;;;;5071614;28;20403;-53
2023/01/01 04:55:47;;;;;;;8.17;2.67;;;12.30;1.00;;;;;;5072109;28;20391;-53
2023/01/01 04:58:13;;;;;;;8.50;2.37;;;12.40;1.00;;;;;;5071910;28;20383;-52
2023/01/01 05:00:38;;;;;;;8.82;2.88;;;12.50;1.00;;;;;;5072180;28;20399;-52
2023/01/01 05:03:04;;;;;;;9.30;2.60;;;12.50;1.00;;;;;;5070987;28;20489;-57
2023/01/01 05:05:30;;;;;;;7.20;2.30;;;12.60;1.00;;;;;;5071716;28;20395;-54
2023/01/01 05:07:55;;;;;;;7.20;2.50;;;12.70;1.00;;;;;;5072578;28;20400;-52
2023/01/01 05:10:21;;;;;;;6.90;2.00;;;12.70;1.00;;;;;;5071559;28;20364;-52
2023/01/01 05:12:46;;;;;;;6.13;1.75;;;12.70;1.00;;;;;;5072698;28;20482;-52
2023/01/01 05:15:12;;;;;;;7.30;2.20;;;12.70;1.00;;;;;;5071090;28;20388;-52
2023/01/01 05:17:38;;;;;;;7.10;1.90;;;12.80;1.00;;;;;;5072201;28;20388;-52
2023/01/01 05:20:04;;;;;;;6.15;1.90;;;12.80;1.00;;;;;;5072014;28;20801;-58
2023/01/01 05:22:29;;;;;;;7.97;1.90;;;12.80;1.00;;;;;;5071528;28;20404;-52
2023/01/01 05:24:55;;;;;;;7.68;2.00;;;12.80;1.00;;;;;;5072030;28;20384;-53
2023/01/01 05:27:20;;;;;;;6.43;1.83;;;12.70;1.00;;;;;;5071137;28;20384;-53
2023/01/01 05:29:46;;;;;;;5.70;1.50;;;12.80;1.00;;;;;;5071670;28;20392;-52
2023/01/01 05:32:11;;;;;;;6.93;1.92;;;12.80;1.00;;;;;;5070869;28;20391;-53
2023/01/01 05:34:37;;;;;;;7.30;2.30;;;12.80;1.00;;;;;;5071688;28;20408;-53
2023/01/01 05:37:03;;;;;;;7.97;2.00;;;12.80;1.00;;;;;;5071241;28;20372;-57
2023/01/01 05:39:29;;;;;;;5.77;1.53;;;12.80;1.00;;;;;;5073154;28;20384;-52
2023/01/01 05:41:55;;;;;;;5.75;1.50;;;12.70;1.00;;;;;;5081937;28;20398;-52
2023/01/01 05:44:20;;;;;;;7.15;1.65;;;12.60;1.00;;;;;;5084080;28;21185;-52
2023/01/01 05:46:46;;;;;;;6.40;1.40;;;12.60;1.00;;;;;;5091577;28;20461;-55
2023/01/01 05:49:12;;;;;;;6.50;1.60;;;12.50;1.00;;;;;;5070847;28;20479;-52
2023/01/01 05:51:38;;;;;;;8.10;1.38;;;12.50;1.00;;;;;;5071454;28;20383;-52
2023/01/01 05:54:03;;;;;;;7.55;1.70;;;12.60;1.00;;;;;;5070801;28;20490;-57
2023/01/01 05:56:29;;;;;;;5.67;1.40;;;12.60;1.00;;;;;;5071254;28;20379;-52
2023/01/01 05:58:55;;;;;;;6.00;1.40;;;12.70;1.00;;;;;;5070944;28;20465;-52
2023/01/01 06:01:26;;;;;;;6.60;1.60;;;12.70;1.00;;;;;;5070294;28;20861;-53
2023/01/01 06:03:54;;;;;;;6.75;1.55;;;12.70;1.00;;;;;;5070778;28;20973;-52
2023/01/01 06:06:24;;;;;;;5.90;1.50;;;12.80;1.00;;;;;;5069452;28;20403;-53
2023/01/01 06:08:58;;;;;;;5.40;1.30;;;12.80;1.00;;;;;;5070628;28;20472;-53
2023/01/01 06:11:25;;;;;;;5.50;1.30;;;12.80;1.00;;;;;;5070034;28;20386;-52
2023/01/01 06:13:53;;;;;;;6.50;1.50;;;12.80;1.00;;;;;;5070826;28;20445;-52
2023/01/01 06:16:18;;;;;;;6.30;1.50;;;12.90;1.00;;;;;;5069847;28;20841;-52
2023/01/01 06:18:44;;;;;;;5.50;1.40;;;12.80;1.00;;;;;;5070665;28;20433;-52
2023/01/01 06:21:12;;;;;;;7.28;1.48;;;12.80;1.00;;;;;;5066669;28;20415;-52
2023/01/01 06:23:39;;;;;;;5.43;1.20;;;12.80;1.00;;;;;;5061507;28;20399;-52
2023/01/01 06:26:25;;;;;;;8.60;1.70;;;12.90;1.00;;;;;;5069951;28;20707;-58
2023/01/01 06:28:51;;;;;;;8.30;1.73;;;12.90;1.00;;;;;;5070495;28;20835;-53
2023/01/01 06:31:19;;;;;;;6.00;1.15;;;12.90;1.00;;;;;;5069839;28;20487;-52
2023/01/01 06:33:45;;;;;;;7.82;1.70;;;13.00;1.00;;;;;;5070544;28;20418;-52
2023/01/01 06:36:14;;;;;;;6.37;1.47;;;12.90;1.00;;;;;;5069689;28;20465;-52
2023/01/01 06:38:42;;;;;;;5.38;1.40;;;12.90;1.00;;;;;;5070538;28;20475;-52
2023/01/01 06:41:11;;;;;;;6.87;1.67;;;12.90;1.00;;;;;;5069265;28;20419;-52
2023/01/01 06:43:37;;;;;;;5.93;1.40;;;13.00;1.00;;;;;;5070725;28;20438;-52
2023/01/01 06:46:13;;;;;;;6.90;1.40;;;13.00;1.00;;;;;;5070244;28;20441;-57
2023/01/01 06:48:39;;;;;;;6.82;1.58;;;12.90;1.00;;;;;;5069931;28;20435;-52
2023/01/01 06:51:06;;;;;;;7.63;1.87;;;12.80;1.00;;;;;;5070041;28;20415;-58
2023/01/01 06:53:32;;;;;;;6.20;1.52;;;12.90;1.00;;;;;;5070027;28;20403;-52
2023/01/01 06:55:58;;;;;;;6.80;1.70;;;12.90;1.00;;;;;;5070235;28;20384;-53
2023/01/01 06:58:23;;;;;;;7.60;1.60;;;12.90;1.00;;;;;;5069351;28;20529;-52
2023/01/01 07:00:49;;;;;;;6.80;1.63;;;12.80;1.00;;;;;;5070018;28;20737;-52
2023/01/01 07:03:14;;;;;;;7.00;1.70;;;12.90;1.00;;;;;;5067980;28;20402;-52
2023/01/01 07:05:40;;;;;;;6.30;1.40;;;12.80;1.00;;;;;;5063884;28;20415;-52
2023/01/01 07:08:05;;;;;;;7.43;1.80;;;12.70;1.00;;;;;;5069729;28;20388;-57
2023/01/01 07:10:31;;;;;;;5.90;1.50;;;12.70;1.00;;;;;;5069190;28;20400;-52
2023/01/01 07:12:57;;;;;;;7.37;1.73;;;12.70;1.00;;;;;;5069494;28;20737;-53
2023/01/01 07:15:22;;;;;;;6.55;1.70;;;12.80;1.00;;;;;;5068714;28;20457;-55
2023/01/01 07:17:48;;;;;;;6.07;1.80;;;12.80;1.00;;;;;;5070357;28;20384;-52
2023/01/01 07:20:13;;;;;;;5.87;1.50;;;12.90;1.00;;;;;;5067684;28;20392;-53
2023/01/01 07:22:39;;;;;;;6.60;1.30;;;12.90;1.00;;;;;;5069214;28;20869;-58
2023/01/01 07:25:06;;;;;;;9.20;1.75;;;13.00;1.00;;;;;;5066980;28;20415;-58
2023/01/01 07:27:32;;;;;;;7.70;2.33;;;13.00;1.00;;;;;;5069825;28;20376;-55
2023/01/01 07:29:57;;;;;;;8.10;2.10;;;12.80;1.00;;;;;;5069142;28;20396;-56
2023/01/01 07:32:23;;;;;;;7.50;2.60;;;12.80;1.00;;;;;;5068895;28;20376;-56
2023/01/01 07:34:49;;;;;;;6.60;1.93;;;12.60;1.00;;;;;;5048383;28;20999;-55
2023/01/01 07:37:14;;;;;;;8.10;2.40;;;12.70;1.00;;;;;;5028749;28;20387;-57
2023/01/01 07:39:40;;;;;;;9.43;2.30;;;12.70;1.00;;;;;;5045759;28;20425;-57
2023/01/01 07:42:05;;;;;;;7.77;2.10;;;12.70;1.00;;;;;;5048723;28;20770;-58
2023/01/01 07:44:31;;;;;;;7.35;2.00;;;12.80;1.00;;;;;;5049338;28;20382;-54
2023/01/01 07:47:04;;;;;;;8.80;2.20;;;12.80;1.00;;;;;;5041952;28;20421;-55
2023/01/01 07:49:30;;;;;;;7.80;1.90;;;12.80;1.00;;;;;;5029129;28;20391;-55
2023/01/01 07:51:56;;;;;;;7.10;2.33;;;13.00;1.00;;;;;;5032034;28;20391;-55
2023/01/01 07:54:22;;;;;;;7.80;2.50;;;13.00;1.00;;;;;;5030776;28;20534;-57
2023/01/01 07:56:47;;;;;;;7.00;1.80;;;13.10;1.00;;;;;;5045187;28;20868;-56
2023/01/01 07:59:13;;;;;;;6.03;1.70;;;13.10;1.00;;;;;;5033902;28;20377;-56
2023/01/01 08:01:38;;;;;;;8.30;1.67;;;13.20;1.00;;;;;;5047196;28;20813;-60
2023/01/01 08:04:04;;;;;;;6.15;1.80;;;13.20;1.00;;;;;;5049000;28;20405;-60
2023/01/01 08:06:30;;;;;;;6.73;1.70;;;13.20;1.00;;;;;;5049029;28;20878;-57
2023/01/01 08:08:55;;;;;;;8.68;2.03;;;13.20;1.00;;;;;;5050376;28;20731;-58
2023/01/01 08:11:21;;;;;;;7.00;1.93;;;13.20;1.00;;;;;;5048413;28;20484;-57
2023/01/01 08:13:52;;;;;;;5.63;1.50;;;13.30;1.00;;;;;;5048658;28;20866;-56
2023/01/01 08:16:18;;;;;;;5.65;1.40;;;13.40;1.00;;;;;;5048435;28;20424;-55
2023/01/01 08:18:45;;;;;;;9.70;2.03;;;13.50;1.00;;;;;;5050586;28;20390;-55
2023/01/01 08:21:10;;;;;;;7.20;1.80;;;13.40;1.00;;;;;;5050090;28;20413;-57
2023/01/01 08:23:36;;;;;;;7.50;2.13;;;13.40;1.00;;;;;;5051458;28;20412;-56
2023/01/01 08:26:02;;;;;;;6.97;2.03;;;13.50;1.00;;;;;;5052636;28;20875;-56
2023/01/01 08:28:29;;;;;;;7.45;2.10;;;13.60;1.00;;;;;;5052976;28;20419;-55
2023/01/01 08:30:54;;;;;;;7.00;2.00;;;13.60;1.00;;;;;;5053105;28;20435;-56
2023/01/01 08:33:21;;;;;;;8.85;1.83;;;13.60;1.00;;;;;;5051945;28;20393;-56
2023/01/01 08:35:48;;;;;;;7.72;2.10;;;12.80;1.00;;;;;;5064566;28;20442;-56
2023/01/01 08:38:13;;;;;;;6.70;2.17;;;13.80;1.00;;;;;;5071423;28;20445;-56
2023/01/01 08:40:39;;;;;;;6.50;1.50;;;13.90;1.00;;;;;;5073046;28;20461;-55
2023/01/01 08:43:05;;;;;;;7.70;2.60;;;14.00;1.00;;;;;;5069517;28;20972;-59
2023/01/01 08:45:30;;;;;;;8.25;1.90;;;14.00;1.00;;;;;;5054282;28;20402;-55
2023/01/01 08:47:56;;;;;;;8.30;2.10;;;14.10;1.00;;;;;;5072761;28;20724;-56
2023/01/01 08:50:22;;;;;;;6.30;1.70;;;14.10;1.00;;;;;;5064387;28;20383;-56
2023/01/01 08:52:47;;;;;;;6.45;2.42;;;14.20;1.00;;;;;;5071007;28;20885;-56
2023/01/01 08:55:13;;;;;;;7.20;2.10;;;14.40;1.00;;;;;;5071805;28;20394;-55
2023/01/01 08:57:38;;;;;;;7.67;1.90;;;14.60;1.00;;;;;;5071382;28;20399;-56
2023/01/01 09:00:07;;;;;;;7.45;2.00;;;14.70;1.00;;;;;;5090910;28;20390;-59
2023/01/01 09:02:33;;;;;;;6.97;2.00;;;14.90;1.00;;;;;;5083798;28;20988;-58
2023/01/01 09:04:58;;;;;;;7.30;2.00;;;15.20;1.00;;;;;;5070780;28;20433;-59
2023/01/01 09:07:24;;;;;;;9.13;2.10;;;15.60;1.00;;;;;;5062293;28;20660;-59
2023/01/01 09:09:49;;;;;;;6.90;2.00;;;16.30;1.00;;;;;;5062186;28;20389;-58
2023/01/01 09:12:15;;;;;;;7.93;2.10;;;17.00;1.00;;;;;;5068230;28;20410;-56
2023/01/01 09:14:41;;;;;;;7.65;2.00;;;17.60;1.00;;;;;;5066867;28;20478;-56
2023/01/01 09:17:07;;;;;;;8.23;2.10;;;17.50;1.00;;;;;;5057648;28;20940;-62
2023/01/01 09:19:32;;;;;;;7.35;2.20;;;17.30;1.00;;;;;;5071681;28;20726;-57
2023/01/01 09:21:58;;;;;;;6.78;2.00;;;17.20;1.00;;;;;;5071053;28;20883;-57
2023/01/01 09:24:24;;;;;;;6.68;2.00;;;16.30;1.00;;;;;;5071036;28;20391;-57
2023/01/01 09:26:49;;;;;;;7.80;2.70;;;17.10;1.00;;;;;;5071547;28;20477;-57
2023/01/01 09:29:17;;;;;;;7.53;2.20;;;17.60;1.00;;;;;;5070914;28;20387;-55
2023/01/01 09:31:43;;;;;;;8.30;2.40;;;18.30;1.00;;;;;;5070677;28;20396;-54
2023/01/01 09:34:09;;;;;;;7.65;2.30;;;18.80;1.00;;;;;;5070282;28;20478;-58
2023/01/01 09:36:35;;;;;;;8.63;2.60;;;19.10;1.00;;;;;;5067763;28;20914;-54
2023/01/01 09:39:01;;;;;;;7.03;2.43;;;19.10;1.00;;;;;;5070911;28;20399;-54
2023/01/01 09:41:32;;;;;;;8.50;2.63;;;19.40;1.00;;;;;;5064379;28;21048;-55
2023/01/01 09:44:18;;;;;;;7.70;2.83;;;20.20;1.00;;;;;;5071336;28;20483;-54
2023/01/01 09:46:44;;;;;;;9.85;4.10;;;21.10;1.00;;;;;;5070834;28;20808;-54
2023/01/01 09:49:27;;;;;;;9.10;5.50;;;21.20;1.00;;;;;;5066622;28;20401;-56
2023/01/01 09:51:59;;;;;;;8.18;6.90;;;21.50;1.00;;;;;;5065300;28;20417;-54
2023/01/01 09:54:35;;;;;;;10.00;7.70;;;22.00;1.00;;;;;;5052999;28;20536;-55
2023/01/01 09:57:04;;;;;;;8.40;7.50;;;22.40;1.00;;;;;;5051231;28;20392;-55
2023/01/01 09:59:29;;;;;;;9.00;7.50;;;22.60;1.00;;;;;;5050441;28;20484;-54
2023/01/01 10:02:48;;;;;;;9.20;7.97;;;22.70;1.00;;;;;;5050618;28;20974;-55
2023/01/01 10:05:36;;;;;;;10.73;8.20;;;22.90;1.00;;;;;;4950127;29;20913;-55
2023/01/01 10:08:09;;;;;;;9.68;8.35;;;22.60;1.00;;;;;;5051438;28;20429;-55
2023/01/01 10:10:40;;;;;;;9.88;8.80;;;22.20;1.00;;;;;;5050857;28;20397;-55
2023/01/01 10:13:22;;;;;;;12.15;6.90;;;21.90;1.00;;;;;;5052687;28;20401;-59
2023/01/01 10:16:12;;;;;;;9.80;6.88;;;21.70;1.00;;;;;;5071086;28;20392;-55
2023/01/01 10:18:40;;;;;;;9.10;5.30;;;21.10;1.00;;;;;;5070864;28;20380;-55
2023/01/01 10:21:20;;;;;;;10.35;5.53;;;20.80;1.00;;;;;;5070921;28;20423;-59
2023/01/01 10:23:56;;;;;;;9.35;5.60;;;20.80;1.00;;;;;;5070728;28;20394;-55
2023/01/01 10:26:25;;;;;;;7.67;5.20;;;21.10;1.00;;;;;;5070277;28;20509;-55
2023/01/01 10:29:00;;;;;;;10.52;4.90;;;20.70;1.00;;;;;;5070800;28;20523;-55
2023/01/01 10:31:33;;;;;;;7.93;4.10;;;20.00;1.00;;;;;;5070043;28;20390;-55
2023/01/01 10:34:14;;;;;;;8.13;4.10;;;20.00;1.00;;;;;;5070309;28;20450;-55
2023/01/01 10:36:39;;;;;;;9.52;4.45;;;20.30;1.00;;;;;;5070441;28;20748;-55
2023/01/01 10:39:06;;;;;;;6.83;3.50;;;20.20;1.00;;;;;;5070667;28;20380;-54
2023/01/01 10:41:31;;;;;;;8.37;4.30;;;20.30;1.00;;;;;;5069945;28;20404;-54
2023/01/01 10:43:57;;;;;;;10.00;3.90;;;20.10;1.00;;;;;;5069177;28;20375;-55
2023/01/01 10:46:25;;;;;;;12.52;4.07;;;20.40;1.00;;;;;;5069781;28;20382;-54
2023/01/01 10:49:16;;;;;;;8.27;3.70;;;20.60;1.00;;;;;;5070327;28;20379;-55
2023/01/01 10:51:48;;;;;;;8.60;3.80;;;20.60;1.00;;;;;;5066444;28;20388;-54
2023/01/01 10:54:32;;;;;;;7.25;3.90;;;21.10;1.00;;;;;;5069427;28;21170;-55
2023/01/01 10:56:57;;;;;;;7.80;3.90;;;21.60;1.00;;;;;;5070363;28;20383;-55
2023/01/01 10:59:43;;;;;;;7.90;4.45;;;22.00;1.00;;;;;;5069389;28;20386;-56
2023/01/01 11:02:18;;;;;;;8.85;4.90;;;22.00;1.00;;;;;;5069515;28;20422;-58
2023/01/01 11:04:43;;;;;;;9.05;5.15;;;22.00;1.00;;;;;;5070123;28;20867;-55
2023/01/01 11:07:26;;;;;;;8.20;4.72;;;21.90;1.00;;;;;;5069492;28;20383;-59
2023/01/01 11:09:57;;;;;;;7.75;4.90;;;21.80;1.00;;;;;;5053967;28;20414;-54
2023/01/01 11:12:26;;;;;;;9.00;5.30;;;21.90;1.00;;;;;;5069345;28;20388;-54
2023/01/01 11:14:53;;;;;;;9.00;4.80;;;21.90;1.00;;;;;;5070086;28;20462;-55
2023/01/01 11:17:31;;;;;;;8.27;5.13;;;21.80;1.00;;;;;;5069335;28;20376;-54
2023/01/01 11:19:58;;;;;;;8.83;5.20;;;22.00;1.00;;;;;;5069617;28;20534;-55
2023/01/01 11:22:51;;;;;;;6.93;4.28;;;21.90;1.00;;;;;;5068963;28;20403;-54
2023/01/01 11:25:22;;;;;;;9.45;4.68;;;21.90;1.00;;;;;;5068872;28;20379;-55
2023/01/01 11:27:49;;;;;;;8.70;5.80;;;22.10;1.00;;;;;;5069779;28;20476;-55
2023/01/01 11:30:27;;;;;;;8.50;5.50;;;22.00;1.00;;;;;;5068882;28;20388;-55
2023/01/01 11:33:03;;;;;;;8.30;5.28;;;21.80;1.00;;;;;;5069579;28;20453;-54
2023/01/01 11:35:32;;;;;;;9.45;4.82;;;21.50;1.00;;;;;;5068586;28;20473;-55
2023/01/01 11:37:58;;;;;;;7.47;4.53;;;21.10;1.00;;;;;;5069473;28;20461;-54
2023/01/01 11:40:37;;;;;;;13.38;4.45;;;20.60;1.00;;;;;;5068849;28;20434;-54
2023/01/01 11:43:05;;;;;;;11.30;4.53;;;20.30;1.00;;;;;;5069610;28;20479;-54
2023/01/01 11:45:33;;;;;;;8.43;4.20;;;19.90;1.00;;;;;;5068667;28;20383;-54
2023/01/01 11:48:02;;;;;;;9.60;4.20;;;19.70;1.00;;;;;;5069246;28;20376;-55
2023/01/01 11:50:33;;;;;;;8.32;3.55;;;19.70;1.00;;;;;;5068750;28;20455;-54
2023/01/01 11:53:23;;;;;;;8.48;4.18;;;19.70;1.00;;;;;;5069546;28;20396;-54
2023/01/01 11:56:07;;;;;;;8.75;3.80;;;19.70;1.00;;;;;;5068882;28;20733;-54
2023/01/01 11:58:42;;;;;;;7.97;3.70;;;19.70;1.00;;;;;;5069219;28;20376;-54
2023/01/01 12:01:31;;;;;;;7.93;3.70;;;19.60;1.00;;;;;;5067488;28;20738;-58
2023/01/01 12:04:05;;;;;;;8.90;3.85;;;19.70;1.00;;;;;;5068978;28;20400;-54
2023/01/01 12:06:37;;;;;;;8.17;3.20;;;19.80;1.00;;;;;;5068667;28;20376;-54
2023/01/01 12:09:14;;;;;;;7.38;3.53;;;19.90;1.00;;;;;;5068950;28;20517;-54
2023/01/01 12:11:40;;;;;;;6.60;3.30;;;19.80;1.00;;;;;;5051211;28;20792;-54
2023/01/01 12:14:44;;;;;;;6.77;3.30;;;19.80;1.00;;;;;;5069237;28;20399;-54
2023/01/01 12:17:53;;;;;;;9.30;4.38;;;19.90;1.00;;;;;;5064568;28;20392;-58
2023/01/01 12:20:25;;;;;;;10.10;4.63;;;20.10;1.00;;;;;;5023712;28;20414;-54
2023/01/01 12:22:54;;;;;;;9.30;4.30;;;20.20;1.00;;;;;;5068906;28;20408;-54
2023/01/01 12:25:20;;;;;;;8.43;3.30;;;20.20;1.00;;;;;;5068376;28;20475;-55
2023/01/01 12:28:13;;;;;;;8.27;3.33;;;20.30;1.00;;;;;;5069295;28;20372;-54
2023/01/01 12:30:59;;;;;;;8.13;3.00;;;20.30;1.00;;;;;;5068969;28;20380;-54
2023/01/01 12:33:35;;;;;;;7.97;3.17;;;20.20;1.00;;;;;;5068645;28;20465;-54
2023/01/01 12:36:30;;;;;;;9.70;3.80;;;19.90;1.00;;;;;;5069100;28;20419;-54
2023/01/01 12:39:07;;;;;;;8.65;3.30;;;20.10;1.00;;;;;;5069233;28;20872;-54
2023/01/01 12:41:45;;;;;;;7.03;2.75;;;20.20;1.00;;;;;;5068380;28;20404;-54
2023/01/01 12:44:36;;;;;;;6.77;3.20;;;20.40;1.00;;;;;;5068511;28;20407;-58
2023/01/01 12:47:30;;;;;;;6.65;3.03;;;20.40;1.00;;;;;;5069335;28;20475;-54
2023/01/01 12:50:09;;;;;;;8.07;3.38;;;20.00;1.00;;;;;;4996798;28;20411;-54
2023/01/01 12:52:43;;;;;;;10.05;2.90;;;20.00;99.90;;;;;;5069048;28;20384;-54
2023/01/01 12:55:45;;;;;;;8.40;3.20;;;20.10;99.90;;;;;;5068385;28;20482;-58
2023/01/01 12:58:15;;;;;;;7.47;3.40;;;20.10;1.00;;;;;;5068063;28;20478;-54
2023/01/01 13:00:45;;;;;;;7.45;3.15;;;20.20;1.00;;;;;;5068868;28;20380;-54
2023/01/01 13:03:42;;;;;;;8.60;3.10;;;20.20;1.00;;;;;;5050128;28;20416;-58
2023/01/01 13:06:12;;;;;;;9.38;2.90;;;20.20;1.00;;;;;;5067437;28;20396;-58
2023/01/01 13:08:40;;;;;;;8.82;3.20;;;20.30;1.00;;;;;;5071702;28;20383;-54
2023/01/01 13:11:07;;;;;;;8.93;3.00;;;20.20;1.00;;;;;;5054945;28;20391;-54
2023/01/01 13:13:32;;;;;;;7.80;3.40;;;21.00;1.00;;;;;;5071989;28;20423;-54
2023/01/01 13:15:58;;;;;;;8.20;3.17;;;20.30;1.00;;;;;;5071938;28;20824;-54